Terminal Aerodrome Forecast
Issued by NWS Tampa Bay Area, FL

Home | Current Version | Previous Version | Text Only | Print | Product List | Glossary On
Versions: 1 2 3 4 5 6 7 8 9 10 11 12 13 14 15 16 17 18 19 20 21 22 23 24 25 26 27 28 29 30
000
FTUS42 KTBW 031100
TAFTPA
TAF
KTPA 031129Z 0312/0412 VRB03KT 1/2SM FG SCT002 OVC004
     FM031400 09005KT P6SM SCT015 BKN025
     FM031600 13006KT P6SM SCT030 SCT250
     FM032000 24007KT P6SM SCT035 SCT250
     FM040100 VRB05KT P6SM BKN035
     FM040600 VRB03KT 3SM BR SCT010 SCT250=

USA.gov is the U.S. government's official web portal to all federal, state and local government web resources and services.